Time;durP1;ratioP1;P1;durP2;ratioP2;P2;SDS_P1;SDS_P2;PMS_P1;PMS_P2;Temp;Humidity;BMP_temperature;BMP_pressure;BME280_temperature;BME280_humidity;BME280_pressure;Samples;Min_cycle;Max_cycle;Signal;HPM_P1;HPM_P2
2022/06/13 00:01:12;;;;;;;15.30;5.27;;;15.10;99.90;;;;;;5098874;28;20273;-78
2022/06/13 00:03:39;;;;;;;17.70;5.83;;;15.10;99.90;;;;;;5117142;28;20753;-78
2022/06/13 00:06:05;;;;;;;19.13;6.10;;;15.10;99.90;;;;;;5117247;28;20280;-78
2022/06/13 00:08:31;;;;;;;16.63;5.63;;;15.10;99.90;;;;;;5117215;28;20327;-78
2022/06/13 00:10:57;;;;;;;16.97;5.30;;;15.00;99.90;;;;;;5117275;28;20277;-78
2022/06/13 00:13:23;;;;;;;12.53;4.70;;;15.00;99.90;;;;;;5116736;28;20052;-78
2022/06/13 00:15:49;;;;;;;15.50;5.40;;;15.00;99.90;;;;;;5116940;28;20050;-78
2022/06/13 00:18:14;;;;;;;14.50;5.70;;;15.00;99.90;;;;;;5116417;28;20047;-78
2022/06/13 00:20:40;;;;;;;16.27;5.20;;;15.00;99.90;;;;;;5099292;28;20044;-78
2022/06/13 00:23:06;;;;;;;13.70;5.10;;;15.00;99.90;;;;;;5098572;28;20103;-77
2022/06/13 00:25:31;;;;;;;19.60;6.00;;;15.00;99.90;;;;;;5116900;28;20044;-79
2022/06/13 00:27:57;;;;;;;16.17;5.60;;;15.10;99.90;;;;;;5098711;28;20040;-79
2022/06/13 00:30:23;;;;;;;17.20;6.37;;;15.10;99.90;;;;;;5116359;28;20043;-78
2022/06/13 00:32:50;;;;;;;17.40;6.93;;;15.10;99.90;;;;;;5117325;28;20376;-79
2022/06/13 00:35:16;;;;;;;18.37;6.03;;;15.10;99.90;;;;;;5116512;28;20096;-79
2022/06/13 00:37:42;;;;;;;16.57;7.30;;;15.10;99.90;;;;;;5116318;28;20310;-79
2022/06/13 00:40:08;;;;;;;16.50;6.73;;;15.10;99.90;;;;;;5116327;28;20296;-79
2022/06/13 00:42:34;;;;;;;18.17;6.50;;;15.10;99.90;;;;;;5116510;28;20495;-79
2022/06/13 00:45:12;;;;;;;19.33;6.23;;;15.10;99.90;;;;;;5098409;28;20289;-79
2022/06/13 00:47:39;;;;;;;15.00;6.37;;;15.10;99.90;;;;;;5116558;28;20043;-79
2022/06/13 00:50:08;;;;;;;17.83;6.97;;;15.10;99.90;;;;;;5116478;28;20756;-79
2022/06/13 00:52:42;;;;;;;19.07;7.27;;;15.10;99.90;;;;;;5116649;28;20629;-79
2022/06/13 00:55:14;;;;;;;17.07;6.70;;;15.10;99.90;;;;;;5116209;28;20411;-79
2022/06/13 00:57:40;;;;;;;18.57;7.47;;;15.10;99.90;;;;;;5116122;28;20301;-80
2022/06/13 01:00:11;;;;;;;16.57;6.60;;;15.10;99.90;;;;;;5116244;28;20322;-79
2022/06/13 01:02:41;;;;;;;18.33;8.00;;;15.10;99.90;;;;;;5116161;28;20119;-79
2022/06/13 01:05:08;;;;;;;18.53;8.23;;;15.10;99.90;;;;;;5115293;28;20285;-78
2022/06/13 01:07:36;;;;;;;23.03;7.83;;;15.10;99.90;;;;;;5115961;28;20339;-78
2022/06/13 01:12:48;;;;;;;19.77;8.57;;;15.10;99.90;;;;;;5100634;28;20277;-79
2022/06/13 01:15:21;;;;;;;19.53;7.73;;;15.00;99.90;;;;;;5097591;28;20325;-79
2022/06/13 01:18:20;;;;;;;18.80;7.27;;;15.00;99.90;;;;;;5116023;28;20703;-79
2022/06/13 01:21:03;;;;;;;24.03;8.40;;;15.00;99.90;;;;;;5115770;28;20821;-80
2022/06/13 01:24:04;;;;;;;17.33;6.87;;;15.00;99.90;;;;;;5115628;28;20277;-79
2022/06/13 01:27:01;;;;;;;19.77;6.87;;;15.00;99.90;;;;;;5054849;28;20761;-79
2022/06/13 01:30:08;;;;;;;18.37;6.87;;;14.90;99.90;;;;;;5097578;28;20294;-79
2022/06/13 01:33:07;;;;;;;15.17;7.03;;;14.90;99.90;;;;;;5097143;28;20422;-79
2022/06/13 01:36:20;;;;;;;19.13;7.90;;;14.90;99.90;;;;;;5097304;28;20289;-79
2022/06/13 01:39:17;;;;;;;19.17;7.57;;;14.90;99.90;;;;;;5115188;28;20309;-79
2022/06/13 01:42:04;;;;;;;21.17;8.63;;;14.80;99.90;;;;;;5097402;28;20369;-79
2022/06/13 01:44:41;;;;;;;19.70;8.53;;;14.80;99.90;;;;;;5115157;28;20792;-79
2022/06/13 01:47:09;;;;;;;14.30;7.13;;;14.80;99.90;;;;;;5115357;28;20785;-79
2022/06/13 01:49:50;;;;;;;16.60;8.17;;;14.80;99.90;;;;;;5115139;28;20285;-79
2022/06/13 01:52:27;;;;;;;19.87;8.20;;;14.80;99.90;;;;;;5115224;28;20761;-79
2022/06/13 01:55:24;;;;;;;17.07;8.40;;;14.80;99.90;;;;;;5115413;28;20277;-79
2022/06/13 01:57:57;;;;;;;18.67;7.77;;;14.80;99.90;;;;;;5096858;28;20305;-78
2022/06/13 02:00:32;;;;;;;16.97;7.43;;;14.80;99.90;;;;;;5114618;28;20753;-78
2022/06/13 02:03:10;;;;;;;19.27;7.88;;;14.80;99.90;;;;;;5115153;28;20273;-78
2022/06/13 02:05:44;;;;;;;17.37;8.10;;;14.80;99.90;;;;;;5114777;28;20043;-79
2022/06/13 02:08:37;;;;;;;19.50;8.03;;;14.80;99.90;;;;;;5115056;28;20322;-79
2022/06/13 02:11:43;;;;;;;19.40;7.47;;;14.70;99.90;;;;;;5114906;28;20289;-79
2022/06/13 02:14:15;;;;;;;16.23;6.80;;;14.80;99.90;;;;;;5103511;28;20292;-79
2022/06/13 02:16:45;;;;;;;18.80;7.30;;;14.70;99.90;;;;;;5113960;28;20483;-78
2022/06/13 02:19:34;;;;;;;18.50;7.20;;;14.70;99.90;;;;;;5114531;28;20615;-79
2022/06/13 02:22:08;;;;;;;16.80;6.50;;;14.80;99.90;;;;;;5114557;28;20289;-78
2022/06/13 02:24:42;;;;;;;15.00;6.33;;;14.80;99.90;;;;;;5114398;28;20273;-78
2022/06/13 02:27:11;;;;;;;17.87;6.40;;;14.80;99.90;;;;;;5114527;28;20285;-79
2022/06/13 02:29:52;;;;;;;15.70;5.67;;;14.80;99.90;;;;;;5113970;28;20282;-78
2022/06/13 02:32:36;;;;;;;17.10;5.80;;;14.80;99.90;;;;;;5114710;28;20363;-79
2022/06/13 02:35:17;;;;;;;16.00;5.23;;;14.80;99.90;;;;;;5114435;28;20270;-79
2022/06/13 02:37:54;;;;;;;15.20;5.23;;;14.80;99.90;;;;;;5113927;28;20773;-79
2022/06/13 02:40:29;;;;;;;14.80;4.87;;;14.80;99.90;;;;;;5114265;28;20298;-77
2022/06/13 02:43:05;;;;;;;12.82;4.80;;;14.80;99.90;;;;;;5114272;28;20281;-79
2022/06/13 02:45:43;;;;;;;15.90;4.33;;;14.80;99.90;;;;;;5113888;28;20506;-79
2022/06/13 02:48:41;;;;;;;16.77;4.77;;;14.80;99.90;;;;;;5113978;28;20792;-78
2022/06/13 02:51:12;;;;;;;11.83;4.43;;;14.80;99.90;;;;;;5078358;28;20294;-78
2022/06/13 02:53:56;;;;;;;12.20;3.83;;;14.80;99.90;;;;;;5113718;28;20286;-78
2022/06/13 03:00:06;;;;;;;11.47;4.00;;;14.80;99.90;;;;;;5090980;28;20289;-79
2022/06/13 03:02:44;;;;;;;11.57;4.20;;;14.70;99.90;;;;;;5113591;28;20281;-79
2022/06/13 03:05:39;;;;;;;15.27;3.97;;;14.70;99.90;;;;;;5114000;28;20281;-78
2022/06/13 03:08:24;;;;;;;;;;;14.70;99.90;;;;;;5114393;28;20270;-79
2022/06/13 03:11:30;;;;;;;14.27;4.10;;;14.70;99.90;;;;;;5113650;28;20013;-79
2022/06/13 03:14:10;;;;;;;11.55;3.30;;;14.70;99.90;;;;;;5113698;28;20278;-79
2022/06/13 03:16:45;;;;;;;13.70;3.67;;;14.70;99.90;;;;;;5113477;28;20142;-78
2022/06/13 03:19:16;;;;;;;10.00;2.97;;;14.70;99.90;;;;;;5113457;28;20401;-79
2022/06/13 03:21:48;;;;;;;13.80;3.70;;;14.60;99.90;;;;;;5095225;28;20082;-79
2022/06/13 03:24:21;;;;;;;10.03;3.17;;;14.60;99.90;;;;;;5113739;28;20278;-79
2022/06/13 03:26:55;;;;;;;15.30;3.77;;;14.60;99.90;;;;;;5113286;28;20277;-79
2022/06/13 03:29:33;;;;;;;11.97;2.87;;;14.60;99.90;;;;;;5113078;28;20816;-79
2022/06/13 03:32:08;;;;;;;8.53;2.93;;;14.60;99.90;;;;;;5113482;28;20691;-79
2022/06/13 03:34:38;;;;;;;9.80;2.93;;;14.60;99.90;;;;;;5113333;28;20281;-79
2022/06/13 03:37:14;;;;;;;9.10;2.43;;;14.60;99.90;;;;;;5113359;28;20296;-79
2022/06/13 03:40:23;;;;;;;8.17;3.00;;;14.60;99.90;;;;;;5113067;28;20295;-79
2022/06/13 03:43:09;;;;;;;8.33;3.07;;;14.60;99.90;;;;;;5112848;28;20716;-79
2022/06/13 03:45:43;;;;;;;9.67;2.90;;;14.60;99.90;;;;;;5094970;28;20777;-79
2022/06/13 03:48:24;;;;;;;9.83;2.60;;;14.60;99.90;;;;;;5113402;28;20270;-79
2022/06/13 03:51:02;;;;;;;11.00;2.97;;;14.60;99.90;;;;;;5112946;28;20281;-79
2022/06/13 03:53:40;;;;;;;8.70;2.43;;;14.60;99.90;;;;;;5113536;28;20281;-80
2022/06/13 03:56:13;;;;;;;10.57;2.60;;;14.60;99.90;;;;;;5113300;28;20289;-80
2022/06/13 03:59:30;;;;;;;10.37;2.57;;;14.60;99.90;;;;;;5112824;28;20423;-79
2022/06/13 04:02:04;;;;;;;9.00;3.10;;;14.60;99.90;;;;;;5109094;28;20698;-79
2022/06/13 04:04:37;;;;;;;10.80;2.67;;;14.60;99.90;;;;;;5113407;28;20671;-79
2022/06/13 04:07:03;;;;;;;8.93;2.50;;;14.70;99.90;;;;;;5113026;28;20274;-79
2022/06/13 04:09:45;;;;;;;9.07;2.90;;;14.70;99.90;;;;;;5112942;28;20277;-78
2022/06/13 04:12:40;;;;;;;8.67;2.53;;;14.70;99.90;;;;;;5113465;28;20281;-78
2022/06/13 04:15:11;;;;;;;12.65;3.30;;;14.70;99.90;;;;;;5113158;28;20277;-79
2022/06/13 04:17:59;;;;;;;10.10;2.57;;;14.70;99.90;;;;;;5112742;28;20051;-78
2022/06/13 04:20:24;;;;;;;8.97;2.93;;;14.70;99.90;;;;;;5113112;28;20281;-78
2022/06/13 04:22:53;;;;;;;9.60;2.70;;;14.60;99.90;;;;;;5112778;28;20376;-78
2022/06/13 04:25:34;;;;;;;10.87;2.90;;;14.70;99.90;;;;;;5112964;28;20056;-78
2022/06/13 04:28:04;;;;;;;8.40;2.33;;;14.70;99.90;;;;;;5112859;28;20282;-78
2022/06/13 04:30:32;;;;;;;7.83;2.57;;;14.80;99.90;;;;;;5112830;28;20289;-78
2022/06/13 04:33:07;;;;;;;11.33;2.97;;;14.80;99.90;;;;;;5112648;28;20274;-79
2022/06/13 04:35:34;;;;;;;13.20;2.85;;;14.90;99.90;;;;;;5113263;28;20280;-79
2022/06/13 04:38:03;;;;;;;9.60;3.27;;;15.00;99.90;;;;;;5094438;28;20555;-79
2022/06/13 04:40:33;;;;;;;10.10;2.87;;;15.00;99.90;;;;;;5113555;28;20314;-79
2022/06/13 04:43:00;;;;;;;10.50;2.60;;;15.10;99.90;;;;;;5116273;28;20288;-78
2022/06/13 04:45:33;;;;;;;10.20;2.57;;;15.10;99.90;;;;;;5098816;28;20285;-79
2022/06/13 04:48:00;;;;;;;5.60;1.90;;;15.00;99.90;;;;;;5116134;28;20318;-79
2022/06/13 04:50:34;;;;;;;8.73;2.00;;;14.90;99.90;;;;;;5116517;28;20385;-79
2022/06/13 04:53:01;;;;;;;6.33;1.90;;;14.80;99.90;;;;;;5098229;28;20430;-79
2022/06/13 04:55:46;;;;;;;5.83;1.90;;;14.70;99.90;;;;;;5116242;28;20285;-79
2022/06/13 04:58:21;;;;;;;6.63;1.80;;;14.80;99.90;;;;;;5116320;28;20345;-79
2022/06/13 05:00:49;;;;;;;9.97;2.30;;;14.70;99.90;;;;;;5116101;28;20273;-78
2022/06/13 05:03:22;;;;;;;6.87;1.70;;;14.80;99.90;;;;;;5116434;28;20645;-79
2022/06/13 05:05:54;;;;;;;6.00;1.80;;;14.80;99.90;;;;;;5097941;28;20282;-78
2022/06/13 05:08:28;;;;;;;8.10;1.73;;;14.80;99.90;;;;;;5116452;28;20297;-79
2022/06/13 05:11:17;;;;;;;7.53;2.13;;;14.90;99.90;;;;;;5116274;28;20278;-79
2022/06/13 05:13:46;;;;;;;9.43;2.10;;;15.10;99.90;;;;;;5116069;28;20063;-79
2022/06/13 05:16:40;;;;;;;6.83;1.70;;;15.30;99.90;;;;;;5116194;28;20309;-79
2022/06/13 05:19:38;;;;;;;8.97;2.30;;;15.50;99.90;;;;;;5115975;28;20331;-78
2022/06/13 05:22:17;;;;;;;7.47;1.83;;;15.70;99.90;;;;;;5082167;28;20763;-79
2022/06/13 05:25:04;;;;;;;7.40;1.70;;;15.80;99.90;;;;;;5115493;28;20301;-78
2022/06/13 05:27:29;;;;;;;6.30;1.90;;;16.00;99.90;;;;;;5098072;28;20346;-79
2022/06/13 05:29:55;;;;;;;12.40;2.20;;;16.10;99.90;;;;;;5115499;28;20745;-78
2022/06/13 05:32:22;;;;;;;10.93;2.50;;;16.30;99.90;;;;;;5097796;28;20104;-79
2022/06/13 05:34:49;;;;;;;6.53;2.10;;;16.40;99.90;;;;;;5115316;28;20047;-79
2022/06/13 05:37:16;;;;;;;7.93;2.10;;;16.60;99.90;;;;;;5096873;28;20289;-79
2022/06/13 05:39:42;;;;;;;9.63;2.47;;;16.80;99.90;;;;;;5097275;28;20288;-78
2022/06/13 05:42:09;;;;;;;8.37;2.40;;;17.00;99.90;;;;;;5097316;28;20316;-78
2022/06/13 05:44:35;;;;;;;9.57;2.47;;;17.10;99.90;;;;;;5115425;28;20341;-78
2022/06/13 05:47:01;;;;;;;10.67;2.97;;;17.20;99.90;;;;;;5096941;28;20281;-78
2022/06/13 05:49:27;;;;;;;11.07;2.53;;;17.30;99.90;;;;;;5115239;27;20510;-78
2022/06/13 05:51:53;;;;;;;8.77;1.83;;;17.50;99.90;;;;;;5114528;28;20360;-78
2022/06/13 05:54:19;;;;;;;11.47;2.60;;;17.70;99.90;;;;;;5097341;28;20571;-78
2022/06/13 05:56:44;;;;;;;7.60;2.07;;;18.30;99.90;;;;;;5115093;28;20083;-77
2022/06/13 05:59:10;;;;;;;9.77;2.53;;;18.40;99.90;;;;;;5097200;28;20403;-78
2022/06/13 06:01:36;;;;;;;9.57;2.57;;;;;;;;;;5115122;28;20043;-78
2022/06/13 06:04:05;;;;;;;10.17;2.30;;;;;;;;;;5096686;28;20043;-77
2022/06/13 06:06:33;;;;;;;8.10;2.33;;;;;;;;;;5114757;28;20483;-76
2022/06/13 06:09:00;;;;;;;9.27;2.50;;;17.50;99.90;;;;;;5114680;28;20363;-76
2022/06/13 06:11:28;;;;;;;7.43;2.07;;;17.10;99.90;;;;;;5080336;28;20051;-76
2022/06/13 06:13:54;;;;;;;8.23;2.37;;;16.90;99.90;;;;;;5114505;28;20123;-76
2022/06/13 06:16:22;;;;;;;7.70;1.73;;;16.60;99.90;;;;;;5114659;28;20571;-77
2022/06/13 06:18:49;;;;;;;6.63;1.47;;;16.30;99.90;;;;;;5114164;28;20035;-76
2022/06/13 06:21:15;;;;;;;10.97;2.10;;;16.20;99.90;;;;;;5114740;28;20043;-76
2022/06/13 06:23:41;;;;;;;6.20;1.60;;;;;;;;;;5114675;28;20317;-77
2022/06/13 06:26:08;;;;;;;7.07;1.50;;;16.50;99.90;;;;;;5114363;28;20051;-77
2022/06/13 06:28:34;;;;;;;5.50;1.70;;;;;;;;;;5114583;28;20047;-77
2022/06/13 06:31:00;;;;;;;5.20;1.80;;;19.10;99.90;;;;;;5114165;28;20399;-77
2022/06/13 06:33:27;;;;;;;5.93;1.80;;;;;;;;;;5096368;28;20104;-78
2022/06/13 06:35:54;;;;;;;5.97;1.73;;;21.30;98.00;;;;;;5114200;28;20050;-78
2022/06/13 06:38:21;;;;;;;6.37;1.60;;;22.50;99.90;;;;;;5114224;28;20047;-78
2022/06/13 06:40:47;;;;;;;4.97;1.73;;;23.50;97.50;;;;;;5114308;28;20126;-78
2022/06/13 06:43:13;;;;;;;4.17;1.60;;;24.50;91.30;;;;;;5113917;28;20145;-78
2022/06/13 06:45:41;;;;;;;8.97;2.20;;;25.30;86.00;;;;;;5114114;28;20059;-78
2022/06/13 06:48:15;;;;;;;8.57;2.13;;;24.90;71.80;;;;;;5113657;28;20039;-78
2022/06/13 06:50:43;;;;;;;5.60;1.87;;;;;;;;;;5114495;28;20044;-78
2022/06/13 06:53:10;;;;;;;7.30;2.03;;;;;;;;;;5113866;28;20083;-78
2022/06/13 07:01:16;;;;;;;8.57;2.63;;;26.10;68.00;;;;;;5074489;28;20062;-78
2022/06/13 07:03:43;;;;;;;9.30;2.30;;;27.10;60.40;;;;;;5113369;28;20047;-79
2022/06/13 07:06:09;;;;;;;6.27;1.80;;;27.30;56.90;;;;;;5113486;28;20079;-79
2022/06/13 07:08:36;;;;;;;8.77;2.30;;;;;;;;;;5113763;28;20119;-74
2022/06/13 07:13:48;;;;;;;6.93;2.13;;;23.90;57.10;;;;;;5095976;28;20157;-77
2022/06/13 07:16:14;;;;;;;7.47;2.13;;;23.00;60.40;;;;;;5113494;28;20443;-78
2022/06/13 07:18:41;;;;;;;9.77;2.23;;;23.10;63.90;;;;;;5113577;28;20047;-74
2022/06/13 07:21:08;;;;;;;7.77;2.20;;;24.10;62.50;;;;;;5095488;28;20122;-80
2022/06/13 07:23:34;;;;;;;7.87;2.00;;;24.40;58.90;;;;;;5113438;28;20043;-80
2022/06/13 07:26:00;;;;;;;8.57;2.43;;;24.00;57.40;;;;;;5095518;28;20113;-80
2022/06/13 07:28:25;;;;;;;9.97;3.23;;;23.20;58.20;;;;;;5113826;28;20487;-80
2022/06/13 07:30:51;;;;;;;7.20;2.10;;;23.60;59.20;;;;;;5113312;28;20039;-80
2022/06/13 07:33:17;;;;;;;7.47;2.00;;;24.60;56.10;;;;;;5113136;28;20079;-80
2022/06/13 07:35:43;;;;;;;8.93;2.77;;;25.60;54.80;;;;;;5113226;28;20043;-81
2022/06/13 07:38:19;;;;;;;6.03;1.80;;;;;;;;;;5112929;28;20047;-81
2022/06/13 07:40:46;;;;;;;9.43;1.90;;;;;;;;;;5113572;28;20411;-81
2022/06/13 07:43:19;;;;;;;5.87;1.67;;;28.10;80.30;;;;;;5113115;28;20083;-81
2022/06/13 07:45:45;;;;;;;5.27;1.77;;;28.70;53.20;;;;;;5095249;28;20039;-81
2022/06/13 07:48:10;;;;;;;7.13;1.90;;;28.70;63.90;;;;;;5112891;28;20612;-80
2022/06/13 07:50:37;;;;;;;9.67;2.07;;;;;;;;;;5113051;28;20088;-81
2022/06/13 07:53:03;;;;;;;7.32;1.75;;;;;;;;;;5113021;28;20073;-81
2022/06/13 07:55:31;;;;;;;7.30;2.00;;;29.90;62.20;;;;;;5113419;28;20043;-81
2022/06/13 07:57:57;;;;;;;8.25;2.25;;;27.90;42.10;;;;;;5113096;28;20039;-81
2022/06/13 08:00:25;;;;;;;7.05;1.90;;;;;;;;;;5112830;28;20062;-81
2022/06/13 08:02:51;;;;;;;6.97;2.00;;;25.50;46.20;;;;;;5111491;28;20398;-80
2022/06/13 08:05:18;;;;;;;7.43;1.80;;;25.90;47.30;;;;;;5102316;28;20043;-80
2022/06/13 08:07:44;;;;;;;9.57;1.97;;;;;;;;;;5098428;28;20072;-81
2022/06/13 08:10:10;;;;;;;7.82;2.25;;;27.80;44.10;;;;;;5092549;28;20044;-81
2022/06/13 08:12:38;;;;;;;8.13;2.30;;;28.20;43.10;;;;;;5092746;28;20044;-80
2022/06/13 08:15:04;;;;;;;7.57;2.10;;;27.90;42.20;;;;;;5094188;28;20052;-80
2022/06/13 08:17:30;;;;;;;7.20;1.83;;;27.70;41.70;;;;;;5078731;28;20135;-80
2022/06/13 08:19:56;;;;;;;7.60;2.00;;;27.20;40.30;;;;;;5096528;28;20127;-81
2022/06/13 08:22:22;;;;;;;7.32;2.05;;;26.70;41.40;;;;;;5096221;28;20087;-80
2022/06/13 08:24:48;;;;;;;6.43;1.97;;;;;;;;;;5096703;28;20074;-80
2022/06/13 08:27:14;;;;;;;7.65;2.00;;;26.10;42.40;;;;;;5096176;28;20105;-80
2022/06/13 08:29:39;;;;;;;9.93;2.50;;;26.00;42.70;;;;;;5096402;28;20052;-80
2022/06/13 08:32:05;;;;;;;10.17;2.27;;;25.10;44.60;;;;;;5096129;28;20051;-79
2022/06/13 08:34:31;;;;;;;8.20;2.40;;;24.20;44.40;;;;;;5096271;28;20516;-80
2022/06/13 08:36:57;;;;;;;7.60;2.47;;;24.00;46.20;;;;;;5078295;28;20131;-79
2022/06/13 08:39:24;;;;;;;8.53;2.87;;;24.40;47.20;;;;;;5096144;28;20531;-80
2022/06/13 08:41:58;;;;;;;7.00;1.80;;;25.20;46.90;;;;;;5078138;28;20101;-78
2022/06/13 08:45:01;;;;;;;8.52;2.05;;;26.10;45.80;;;;;;5096030;28;20465;-80
2022/06/13 08:47:41;;;;;;;6.33;2.23;;;26.30;43.90;;;;;;5096003;28;20044;-79
2022/06/13 08:50:28;;;;;;;8.43;1.83;;;25.90;43.70;;;;;;5095922;28;20131;-80
2022/06/13 08:53:21;;;;;;;7.27;2.03;;;25.80;44.50;;;;;;5095975;28;20484;-80
2022/06/13 08:55:49;;;;;;;6.13;1.90;;;;;;;;;;5104031;28;20503;-80
2022/06/13 08:58:31;;;;;;;7.00;1.60;;;24.50;59.20;;;;;;5087694;28;20044;-74
2022/06/13 09:01:19;;;;;;;6.40;1.73;;;23.80;45.60;;;;;;5106163;28;20101;-82
2022/06/13 09:03:55;;;;;;;9.17;2.47;;;23.60;46.30;;;;;;5091580;28;20144;-75
2022/06/13 09:06:35;;;;;;;11.17;2.90;;;23.40;47.40;;;;;;5105898;28;20040;-75
2022/06/13 09:09:01;;;;;;;7.40;1.83;;;23.10;47.40;;;;;;5088317;28;20052;-85
2022/06/13 09:12:00;;;;;;;6.80;2.50;;;22.80;47.50;;;;;;5103935;28;20163;-74
2022/06/13 09:14:40;;;;;;;8.00;2.10;;;22.70;49.10;;;;;;5099084;28;20500;-83
2022/06/13 09:17:25;;;;;;;10.50;1.97;;;22.60;50.30;;;;;;5104122;28;20521;-84
2022/06/13 09:19:54;;;;;;;6.55;2.38;;;22.70;50.30;;;;;;5104484;28;20036;-74
2022/06/13 09:22:30;;;;;;;8.43;2.43;;;22.80;49.90;;;;;;5104081;28;20391;-75
2022/06/13 09:25:08;;;;;;;5.73;1.83;;;22.90;48.80;;;;;;5095681;28;20043;-82
2022/06/13 09:27:58;;;;;;;7.27;1.80;;;23.00;49.10;;;;;;5094814;28;20089;-78
2022/06/13 09:30:33;;;;;;;8.93;2.60;;;23.00;48.70;;;;;;5095047;28;20039;-78
2022/06/13 09:33:07;;;;;;;6.70;1.80;;;22.90;48.50;;;;;;5085427;28;20688;-82
2022/06/13 09:35:35;;;;;;;9.13;2.30;;;;;;;;;;5103268;28;20507;-81
2022/06/13 09:38:19;;;;;;;8.93;1.83;;;24.10;64.70;;;;;;5105038;28;20401;-83
2022/06/13 09:40:58;;;;;;;8.13;2.00;;;22.50;50.40;;;;;;5086112;28;20048;-81
2022/06/13 09:43:38;;;;;;;10.87;2.70;;;22.30;50.10;;;;;;5103605;28;20052;-83
2022/06/13 09:46:43;;;;;;;9.07;2.87;;;21.70;55.10;;;;;;5112611;28;20047;-81
2022/06/13 09:49:17;;;;;;;12.97;2.60;;;;;;;;;;5114798;28;20090;-83
2022/06/13 09:51:44;;;;;;;7.97;2.50;;;;;;;;;;5115298;28;20048;-75
2022/06/13 09:54:28;;;;;;;10.37;2.40;;;;;;;;;;5115363;28;20126;-76
2022/06/13 09:57:01;;;;;;;7.60;2.53;;;;;;;;;;5115340;28;20052;-72
2022/06/13 09:59:39;;;;;;;8.67;2.47;;;;;;;;;;5115024;28;20104;-79
2022/06/13 10:02:09;;;;;;;9.90;2.87;;;;;;;;;;5108375;28;20043;-79
2022/06/13 10:04:38;;;;;;;10.50;3.53;;;;;;;;;;5104309;28;20046;-78
2022/06/13 10:07:08;;;;;;;7.07;2.33;;;;;;;;;;5115129;28;20055;-79
2022/06/13 10:09:34;;;;;;;10.07;2.40;;;;;;;;;;5114542;28;20066;-80
2022/06/13 10:12:16;;;;;;;9.70;2.53;;;;;;;;;;5111600;28;20043;-78
2022/06/13 10:14:49;;;;;;;8.77;2.40;;;;;;;;;;5102260;28;20040;-80
2022/06/13 10:17:30;;;;;;;9.10;2.40;;;;;;;;;;5094290;28;20554;-78
2022/06/13 10:20:15;;;;;;;8.90;2.70;;;;;;;;;;5094339;28;20044;-79
2022/06/13 10:22:58;;;;;;;8.43;2.70;;;20.50;99.90;;;;;;5094239;28;20393;-80
2022/06/13 10:26:00;;;;;;;10.30;2.97;;;20.30;91.70;;;;;;5094188;28;20127;-80
2022/06/13 10:28:30;;;;;;;11.67;2.93;;;20.00;96.60;;;;;;5088780;28;20487;-79
2022/06/13 10:31:31;;;;;;;10.43;3.10;;;19.70;99.90;;;;;;5114490;28;20054;-78
2022/06/13 10:34:34;;;;;;;9.40;2.33;;;19.70;99.90;;;;;;5114752;28;20400;-81
2022/06/13 10:37:03;;;;;;;8.87;2.60;;;19.70;99.50;;;;;;5114200;28;20182;-73
2022/06/13 10:39:29;;;;;;;10.73;2.77;;;;;;;;;;5113034;28;20036;-73
2022/06/13 10:42:02;;;;;;;11.17;2.70;;;19.50;99.90;;;;;;5114670;28;20134;-80
2022/06/13 10:44:29;;;;;;;10.23;3.00;;;;;;;;;;5114223;28;20395;-80
2022/06/13 10:46:58;;;;;;;13.90;3.63;;;;;;;;;;5096533;28;20039;-80
2022/06/13 10:49:28;;;;;;;10.87;3.47;;;;;;;;;;5113746;28;20143;-80
2022/06/13 10:51:58;;;;;;;10.27;3.40;;;;;;;;;;5095814;28;20039;-80
2022/06/13 10:54:27;;;;;;;9.67;2.50;;;;;;;;;;5113907;28;20044;-80
2022/06/13 10:56:56;;;;;;;13.57;3.17;;;;;;;;;;5114180;28;20050;-80
2022/06/13 10:59:28;;;;;;;10.07;2.50;;;;;;;;;;5113548;28;20045;-79
2022/06/13 11:02:00;;;;;;;10.67;2.63;;;;;;;;;;5096112;28;20079;-81
2022/06/13 11:04:26;;;;;;;10.37;2.63;;;;;;;;;;5113614;28;20529;-78
2022/06/13 11:06:54;;;;;;;14.83;3.07;;;;;;;;;;5113612;28;20498;-80
2022/06/13 11:09:23;;;;;;;9.87;2.30;;;;;;;;;;5113863;28;20046;-74
2022/06/13 11:11:53;;;;;;;10.67;3.03;;;;;;;;;;5113715;28;20047;-81
2022/06/13 11:14:33;;;;;;;13.20;2.93;;;;;;;;;;5113678;28;20083;-79
2022/06/13 11:22:39;;;;;;;7.70;2.00;;;;;;;;;;5111915;28;20112;-79
2022/06/13 11:25:25;;;;;;;11.57;2.80;;;;;;;;;;5113453;28;20483;-80
2022/06/13 11:28:03;;;;;;;7.33;2.47;;;;;;;;;;5113641;28;20069;-80
2022/06/13 11:30:34;;;;;;;8.70;2.80;;;;;;;;;;5113499;28;20044;-80
2022/06/13 11:33:22;;;;;;;8.77;2.27;;;20.00;77.20;;;;;;5113712;28;20418;-80
2022/06/13 11:35:56;;;;;;;12.50;2.63;;;;;;;;;;5113123;28;20043;-80
2022/06/13 11:38:24;;;;;;;11.53;2.63;;;;;;;;;;5113299;28;20057;-80
2022/06/13 11:40:59;;;;;;;13.93;3.00;;;;;;;;;;5113335;28;20503;-80
2022/06/13 11:43:37;;;;;;;11.73;2.87;;;19.30;93.30;;;;;;5113106;28;20087;-80
2022/06/13 11:46:06;;;;;;;11.53;2.40;;;19.40;94.80;;;;;;5095143;28;20055;-80
2022/06/13 11:48:33;;;;;;;12.00;3.03;;;19.30;94.30;;;;;;5078258;28;20048;-80
2022/06/13 11:51:03;;;;;;;11.70;3.03;;;19.40;94.30;;;;;;5095332;28;20055;-80
2022/06/13 11:53:36;;;;;;;12.30;2.63;;;19.40;93.00;;;;;;5112995;28;20100;-80
2022/06/13 11:56:03;;;;;;;9.40;2.60;;;;;;;;;;5113321;28;20062;-80
2022/06/13 11:58:31;;;;;;;9.80;2.67;;;;;;;;;;5112750;28;20475;-80
2022/06/13 12:01:23;;;;;;;10.90;2.70;;;19.40;87.60;;;;;;5113039;28;20096;-80
2022/06/13 12:04:02;;;;;;;10.60;2.50;;;19.40;88.70;;;;;;5113071;28;20050;-80
2022/06/13 12:06:35;;;;;;;13.20;3.50;;;19.50;87.30;;;;;;5078244;28;20073;-80
2022/06/13 12:09:12;;;;;;;9.70;2.50;;;19.60;86.40;;;;;;5113047;28;20086;-80
2022/06/13 12:11:45;;;;;;;8.50;2.73;;;19.60;84.30;;;;;;5112986;28;20399;-80
2022/06/13 12:14:12;;;;;;;8.30;2.27;;;19.50;84.80;;;;;;5113082;28;20480;-80
2022/06/13 12:16:48;;;;;;;10.20;2.03;;;19.40;84.50;;;;;;5112672;28;20127;-80
2022/06/13 12:19:33;;;;;;;8.67;2.77;;;19.50;81.50;;;;;;5113059;28;20086;-80
2022/06/13 12:22:17;;;;;;;9.65;2.33;;;19.50;78.40;;;;;;5113368;28;20052;-79
2022/06/13 12:25:14;;;;;;;9.23;2.37;;;19.40;77.60;;;;;;5112808;28;20127;-80
2022/06/13 12:27:50;;;;;;;7.40;2.27;;;19.40;79.70;;;;;;5008961;28;20075;-79
2022/06/13 12:30:49;;;;;;;9.87;2.50;;;19.50;79.80;;;;;;5113284;28;20051;-79
2022/06/13 12:33:46;;;;;;;10.47;2.20;;;19.60;80.40;;;;;;5112882;28;20514;-80
2022/06/13 12:36:30;;;;;;;9.00;2.33;;;19.70;79.80;;;;;;5095104;28;20507;-80
2022/06/13 12:39:04;;;;;;;9.23;2.53;;;19.70;77.80;;;;;;5112145;28;20048;-74
2022/06/13 12:41:56;;;;;;;10.57;2.78;;;19.80;76.00;;;;;;5112996;28;20062;-80
2022/06/13 12:44:58;;;;;;;11.27;2.53;;;19.70;76.30;;;;;;5112865;28;20143;-79
2022/06/13 12:47:48;;;;;;;11.50;2.30;;;;;;;;;;5086976;28;20059;-78
2022/06/13 12:50:43;;;;;;;9.57;1.93;;;19.50;71.30;;;;;;5112862;28;20040;-74
2022/06/13 12:53:39;;;;;;;8.70;2.58;;;19.40;73.60;;;;;;5112772;28;20055;-75
2022/06/13 12:56:11;;;;;;;10.73;2.20;;;;;;;;;;5112924;28;20043;-74
2022/06/13 12:58:40;;;;;;;9.57;2.33;;;;;;;;;;5112200;28;20044;-76
2022/06/13 13:01:17;;;;;;;10.90;2.50;;;;;;;;;;5112711;28;20050;-75
2022/06/13 13:04:02;;;;;;;11.67;2.70;;;;;;;;;;5116168;28;20047;-74
2022/06/13 13:06:34;;;;;;;7.03;2.30;;;;;;;;;;5116385;28;20415;-76
2022/06/13 13:09:38;;;;;;;10.17;2.13;;;;;;;;;;5115889;28;20047;-74
2022/06/13 13:12:16;;;;;;;11.10;3.43;;;19.60;75.70;;;;;;5033335;28;20056;-76
2022/06/13 13:15:22;;;;;;;9.87;2.40;;;19.50;77.40;;;;;;5033341;28;20057;-74
2022/06/13 13:18:14;;;;;;;10.67;2.23;;;19.50;80.30;;;;;;5101290;28;20113;-75
2022/06/13 13:21:25;;;;;;;8.20;2.13;;;19.50;76.10;;;;;;5115987;28;20453;-74
2022/06/13 13:24:12;;;;;;;8.30;2.17;;;19.50;75.80;;;;;;5090442;28;20059;-77
2022/06/13 13:27:04;;;;;;;6.47;1.80;;;19.40;75.80;;;;;;5115874;28;20472;-73
2022/06/13 13:29:39;;;;;;;6.50;1.90;;;19.40;73.20;;;;;;5115832;28;20119;-76
2022/06/13 13:32:20;;;;;;;11.77;2.63;;;19.40;71.70;;;;;;5115556;28;20399;-78
2022/06/13 13:35:25;;;;;;;10.40;2.43;;;19.40;73.30;;;;;;5115223;28;20043;-79
2022/06/13 13:38:36;;;;;;;15.73;2.43;;;19.20;75.70;;;;;;5115220;28;20063;-75
2022/06/13 13:41:18;;;;;;;9.40;2.27;;;19.10;77.80;;;;;;5104036;28;20051;-76
2022/06/13 13:43:59;;;;;;;8.00;2.10;;;19.10;79.50;;;;;;5115393;28;20181;-75
2022/06/13 13:46:28;;;;;;;7.80;1.80;;;19.10;80.60;;;;;;5115654;28;20044;-70
2022/06/13 13:49:04;;;;;;;12.43;2.13;;;19.00;79.90;;;;;;5115064;28;20039;-79
2022/06/13 13:51:40;;;;;;;11.50;2.00;;;19.00;81.40;;;;;;5115273;28;20101;-78
2022/06/13 13:54:17;;;;;;;10.23;2.80;;;19.00;82.00;;;;;;5097256;28;20543;-79
2022/06/13 13:57:16;;;;;;;8.63;1.93;;;18.90;81.00;;;;;;5096922;28;20101;-78
2022/06/13 13:59:48;;;;;;;9.83;1.90;;;19.00;82.70;;;;;;5083544;28;20083;-79
2022/06/13 14:02:26;;;;;;;9.10;2.30;;;18.90;83.00;;;;;;5115351;28;20081;-79
2022/06/13 14:05:33;;;;;;;7.13;1.90;;;18.80;82.80;;;;;;5115038;28;20388;-79
2022/06/13 14:08:07;;;;;;;8.57;2.07;;;18.80;83.60;;;;;;5114873;28;20038;-78